createdAt,value
2024-01-15T00:04:06.096Z,11.77
2024-01-15T00:08:23.692Z,11.68
2024-01-15T00:12:41.462Z,11.48
2024-01-15T00:16:59.573Z,12.00
2024-01-15T00:21:17.390Z,12.15
2024-01-15T00:25:35.303Z,12.45
2024-01-15T00:29:53.707Z,12.35
2024-01-15T00:34:12.096Z,13.40
2024-01-15T00:38:30.513Z,12.65
2024-01-15T00:42:49.394Z,12.68
2024-01-15T00:47:07.175Z,12.82
2024-01-15T00:51:24.782Z,12.57
2024-01-15T00:55:43.025Z,12.73
2024-01-15T01:00:03.771Z,12.75
2024-01-15T01:04:23.921Z,13.32
2024-01-15T01:08:41.954Z,12.98
2024-01-15T01:17:17.435Z,12.68
2024-01-15T01:21:35.687Z,11.75
2024-01-15T01:25:53.684Z,11.23
2024-01-15T01:34:31.238Z,11.68
2024-01-15T01:38:50.633Z,13.70
2024-01-15T01:43:10.090Z,12.88
2024-01-15T01:47:27.932Z,13.43
2024-01-15T01:51:46.234Z,14.43
2024-01-15T01:56:04.755Z,14.23
2024-01-15T02:00:22.228Z,14.65
2024-01-15T02:04:40.734Z,13.85
2024-01-15T02:08:58.433Z,14.23
2024-01-15T02:13:16.171Z,14.52
2024-01-15T02:17:33.689Z,15.18
2024-01-15T02:21:51.460Z,14.55
2024-01-15T02:26:10.533Z,13.20
2024-01-15T02:30:29.792Z,14.90
2024-01-15T02:34:47.543Z,14.00
2024-01-15T02:39:05.466Z,13.65
2024-01-15T02:43:23.022Z,14.85
2024-01-15T02:47:40.773Z,14.45
2024-01-15T02:51:58.538Z,15.23
2024-01-15T02:56:16.358Z,15.45
2024-01-15T03:00:35.479Z,16.65
2024-01-15T03:04:53.874Z,16.45
2024-01-15T03:09:12.336Z,15.45
2024-01-15T03:13:30.070Z,17.45
2024-01-15T03:17:48.107Z,16.48
2024-01-15T03:22:05.912Z,15.95
2024-01-15T03:26:24.215Z,14.65
2024-01-15T03:30:43.255Z,15.07
2024-01-15T03:35:01.893Z,16.08
2024-01-15T03:39:20.292Z,15.95
2024-01-15T03:43:38.002Z,15.38
2024-01-15T03:47:55.963Z,16.60
2024-01-15T03:52:13.637Z,15.80
2024-01-15T03:56:31.301Z,14.63
2024-01-15T04:00:49.515Z,16.10
2024-01-15T04:05:07.387Z,16.08
2024-01-15T04:09:25.382Z,17.38
2024-01-15T04:13:43.438Z,14.95
2024-01-15T04:26:37.491Z,16.05
2024-01-15T04:30:55.521Z,15.88
2024-01-15T04:39:32.312Z,14.27
2024-01-15T04:43:50.204Z,15.38
2024-01-15T04:48:08.356Z,14.20
2024-01-15T04:52:27.104Z,15.25
2024-01-15T04:56:45.852Z,14.95
2024-01-15T05:01:03.635Z,14.60
2024-01-15T05:05:21.764Z,13.57
2024-01-15T05:09:39.577Z,13.30
2024-01-15T05:13:57.212Z,11.65
2024-01-15T05:18:15.474Z,12.07
2024-01-15T05:22:33.262Z,12.50
2024-01-15T05:26:50.802Z,10.80
2024-01-15T05:31:13.307Z,10.50
2024-01-15T05:35:31.380Z,10.48
2024-01-15T05:44:06.934Z,10.13
2024-01-15T05:48:26.130Z,10.48
2024-01-15T05:52:46.783Z,11.45
2024-01-15T05:57:04.534Z,10.52
2024-01-15T06:01:21.934Z,10.52
2024-01-15T06:05:41.473Z,11.73
2024-01-15T06:09:59.222Z,11.38
2024-01-15T06:14:16.896Z,10.38
2024-01-15T06:18:34.726Z,11.60
2024-01-15T06:22:52.738Z,10.52
2024-01-15T06:27:11.907Z,11.55
2024-01-15T06:31:31.273Z,10.70
2024-01-15T06:35:50.958Z,11.55
2024-01-15T06:40:10.090Z,11.55
2024-01-15T06:44:27.452Z,12.18
2024-01-15T06:48:46.885Z,14.05
2024-01-15T06:53:04.632Z,12.85
2024-01-15T06:57:21.983Z,12.77
2024-01-15T07:01:39.627Z,12.38
2024-01-15T07:05:58.171Z,11.60
2024-01-15T07:10:15.687Z,10.85
2024-01-15T07:14:33.788Z,12.15
2024-01-15T07:18:51.364Z,12.13
2024-01-15T07:27:27.057Z,12.48
2024-01-15T07:31:51.895Z,12.63
2024-01-15T07:36:12.975Z,12.20
2024-01-15T07:40:30.531Z,12.75
2024-01-15T07:44:48.280Z,11.67
2024-01-15T07:49:09.383Z,11.02
2024-01-15T07:53:27.038Z,11.30
2024-01-15T07:57:50.666Z,12.60
2024-01-15T08:02:11.152Z,12.05
2024-01-15T08:06:29.023Z,11.30
2024-01-15T08:15:06.545Z,11.52
2024-01-15T08:19:25.154Z,10.32
2024-01-15T08:23:43.209Z,10.57
2024-01-15T08:28:01.136Z,11.25
2024-01-15T08:32:18.584Z,10.38
2024-01-15T08:36:37.728Z,12.95
2024-01-15T08:40:58.126Z,16.58
2024-01-15T08:45:16.192Z,10.10
2024-01-15T08:53:51.060Z,9.85
2024-01-15T08:58:09.686Z,9.43
2024-01-15T09:02:30.550Z,9.40
2024-01-15T09:06:48.583Z,10.82
2024-01-15T09:15:23.464Z,8.75
2024-01-15T09:19:41.351Z,9.10
2024-01-15T09:23:59.455Z,9.65
2024-01-15T09:28:17.421Z,8.70
2024-01-15T09:32:35.095Z,9.60
2024-01-15T09:36:53.310Z,9.45
2024-01-15T09:45:28.675Z,8.48
2024-01-15T09:49:46.446Z,8.05
2024-01-15T09:54:05.205Z,8.45
2024-01-15T09:58:22.800Z,8.48
2024-01-15T10:02:41.622Z,8.85
2024-01-15T10:07:02.172Z,8.70
2024-01-15T10:11:19.930Z,9.07
2024-01-15T10:15:39.586Z,7.97
2024-01-15T10:19:57.864Z,7.45
2024-01-15T10:24:15.967Z,7.38
2024-01-15T10:28:35.849Z,6.82
2024-01-15T10:33:04.569Z,7.07
2024-01-15T10:37:22.755Z,6.88
2024-01-15T10:41:41.387Z,6.18
2024-01-15T10:45:58.867Z,6.65
2024-01-15T10:50:16.810Z,7.05
2024-01-15T10:54:38.446Z,5.38
2024-01-15T10:59:00.611Z,6.43
2024-01-15T11:03:20.140Z,7.05
2024-01-15T11:07:42.936Z,6.60
2024-01-15T11:12:12.833Z,7.10
2024-01-15T11:16:54.940Z,6.00
2024-01-15T11:21:19.790Z,7.13
2024-01-15T11:25:38.614Z,6.10
2024-01-15T11:30:18.521Z,6.25
2024-01-15T11:35:16.369Z,5.80
2024-01-15T11:39:34.277Z,6.43
2024-01-15T11:43:51.801Z,6.90
2024-01-15T11:48:17.477Z,5.45
2024-01-15T11:52:37.478Z,5.88
2024-01-15T11:56:56.480Z,6.13
2024-01-15T12:01:14.070Z,6.13
2024-01-15T12:05:31.899Z,7.40
2024-01-15T12:09:52.067Z,6.70
2024-01-15T12:14:09.665Z,6.53
2024-01-15T12:18:28.456Z,5.70
2024-01-15T12:22:56.574Z,6.25
2024-01-15T12:27:19.515Z,7.55
2024-01-15T12:31:40.537Z,6.25
2024-01-15T12:35:59.834Z,6.13
2024-01-15T12:40:21.697Z,5.85
2024-01-15T12:44:40.427Z,6.15
2024-01-15T12:48:58.795Z,5.35
2024-01-15T12:53:17.079Z,5.80
2024-01-15T13:01:53.385Z,5.40
2024-01-15T13:10:31.467Z,5.90
2024-01-15T13:14:49.343Z,5.78
2024-01-15T13:19:08.101Z,5.40
2024-01-15T13:23:25.430Z,5.07
2024-01-15T13:27:43.321Z,6.10
2024-01-15T13:32:01.900Z,5.55
2024-01-15T13:36:19.667Z,5.45
2024-01-15T13:40:38.102Z,5.90
2024-01-15T13:44:55.704Z,5.78
2024-01-15T13:49:16.264Z,5.57
2024-01-15T13:53:34.079Z,5.30
2024-01-15T13:57:51.778Z,5.50
2024-01-15T14:02:11.262Z,5.78
2024-01-15T14:06:29.223Z,5.43
2024-01-15T14:10:46.881Z,6.00
2024-01-15T14:15:05.066Z,5.75
2024-01-15T14:23:41.313Z,6.43
2024-01-15T14:27:59.818Z,7.13
2024-01-15T14:32:17.814Z,7.07
2024-01-15T14:36:36.241Z,6.50
2024-01-15T14:40:53.789Z,6.60
2024-01-15T14:45:13.344Z,7.03
2024-01-15T14:49:33.331Z,6.20
2024-01-15T14:53:50.775Z,7.07
2024-01-15T14:58:09.317Z,6.80
2024-01-15T15:02:31.513Z,6.93
2024-01-15T15:06:51.582Z,7.63
2024-01-15T15:11:11.519Z,6.82
2024-01-15T15:15:29.153Z,7.07
2024-01-15T15:19:47.218Z,7.22
2024-01-15T15:24:04.997Z,7.55
2024-01-15T15:32:41.071Z,7.22
2024-01-15T15:36:58.824Z,7.80
2024-01-15T15:41:16.456Z,6.60
2024-01-15T15:45:34.095Z,7.22
2024-01-15T15:49:52.251Z,6.63
2024-01-15T15:54:10.723Z,7.97
2024-01-15T15:58:28.233Z,7.50
2024-01-15T16:02:46.619Z,8.27
2024-01-15T16:07:09.450Z,8.60
2024-01-15T16:11:27.198Z,8.68
2024-01-15T16:15:45.805Z,8.48
2024-01-15T16:23:28.929Z,8.50
2024-01-15T16:24:51.136Z,8.80
2024-01-15T16:29:11.043Z,10.02
2024-01-15T16:33:29.119Z,8.00
2024-01-15T16:37:46.979Z,7.85
2024-01-15T16:42:06.106Z,9.40
2024-01-15T16:46:24.687Z,8.30
2024-01-15T16:50:42.686Z,9.02
2024-01-15T16:55:00.554Z,7.60
2024-01-15T16:59:18.180Z,7.65
2024-01-15T17:03:37.596Z,8.02
2024-01-15T17:07:56.479Z,7.70
2024-01-15T17:12:14.182Z,7.70
2024-01-15T17:16:31.891Z,7.77
2024-01-15T17:20:50.568Z,7.60
2024-01-15T17:25:09.016Z,7.72
2024-01-15T17:29:26.727Z,7.47
2024-01-15T17:33:44.345Z,6.50
2024-01-15T17:38:02.022Z,7.25
2024-01-15T17:42:20.276Z,5.90
2024-01-15T17:46:37.772Z,5.80
2024-01-15T17:50:55.641Z,5.30
2024-01-15T17:55:13.857Z,4.72
2024-01-15T18:03:50.220Z,4.23
2024-01-15T18:12:27.063Z,5.70
2024-01-15T18:16:49.858Z,4.18
2024-01-15T18:21:07.399Z,9.57
2024-01-15T18:25:26.052Z,4.90
2024-01-15T18:29:46.316Z,5.65
2024-01-15T18:34:04.629Z,4.88
2024-01-15T18:38:22.782Z,4.60
2024-01-15T18:42:40.722Z,5.38
2024-01-15T18:46:59.031Z,3.90
2024-01-15T18:51:25.816Z,3.85
2024-01-15T18:55:43.932Z,3.95
2024-01-15T19:00:01.725Z,3.47
2024-01-15T19:04:20.008Z,4.22
2024-01-15T19:12:55.759Z,3.57
2024-01-15T19:17:13.246Z,3.20
2024-01-15T19:21:31.758Z,3.40
2024-01-15T19:25:52.084Z,3.30
2024-01-15T19:30:14.314Z,3.97
2024-01-15T19:34:34.596Z,3.33
2024-01-15T19:38:54.130Z,3.35
2024-01-15T19:43:13.118Z,2.75
2024-01-15T19:47:39.855Z,3.95
2024-01-15T19:52:03.206Z,3.45
2024-01-15T19:56:27.924Z,3.53
2024-01-15T20:00:49.582Z,4.57
2024-01-15T20:05:10.818Z,3.70
2024-01-15T20:09:31.771Z,3.80
2024-01-15T20:13:53.872Z,3.35
2024-01-15T20:18:12.282Z,3.42
2024-01-15T20:22:35.573Z,4.28
2024-01-15T20:26:54.405Z,4.13
2024-01-15T20:31:14.375Z,3.72
2024-01-15T20:35:37.884Z,2.92
2024-01-15T20:39:59.228Z,3.10
2024-01-15T20:44:20.487Z,2.58
2024-01-15T20:48:42.371Z,2.53
2024-01-15T20:53:03.750Z,1.83
2024-01-15T20:57:24.301Z,1.70
2024-01-15T21:01:41.973Z,2.20
2024-01-15T21:06:00.892Z,2.17
2024-01-15T21:10:25.752Z,3.05
2024-01-15T21:14:49.148Z,2.00
2024-01-15T21:19:06.658Z,1.80
2024-01-15T21:23:26.398Z,2.10
2024-01-15T21:27:44.740Z,2.40
2024-01-15T21:32:02.934Z,2.83
2024-01-15T21:36:23.151Z,2.20
2024-01-15T21:40:41.119Z,2.20
2024-01-15T21:49:16.401Z,2.35
2024-01-15T21:53:34.657Z,2.20
2024-01-15T22:02:11.252Z,2.27
2024-01-15T22:06:30.338Z,2.65
2024-01-15T22:10:48.219Z,2.83
2024-01-15T22:15:06.625Z,2.03
2024-01-15T22:19:25.675Z,2.40
2024-01-15T22:23:43.580Z,2.33
2024-01-15T22:28:01.331Z,1.70
2024-01-15T22:32:19.695Z,2.08
2024-01-15T22:36:37.611Z,1.85
2024-01-15T22:40:55.547Z,2.00
2024-01-15T22:45:16.646Z,2.08
2024-01-15T22:49:35.970Z,2.00
2024-01-15T22:53:55.009Z,1.88
2024-01-15T22:58:12.928Z,1.73
2024-01-15T23:02:30.846Z,2.10
2024-01-15T23:06:49.608Z,2.03
2024-01-15T23:11:12.448Z,1.92
2024-01-15T23:15:33.331Z,2.05
2024-01-15T23:19:54.144Z,2.10
2024-01-15T23:24:14.225Z,1.70
2024-01-15T23:28:34.021Z,1.63
2024-01-15T23:32:55.814Z,2.03
2024-01-15T23:37:16.768Z,1.98
2024-01-15T23:41:35.010Z,2.20
2024-01-15T23:45:59.453Z,1.98
2024-01-15T23:50:21.362Z,1.90
2024-01-15T23:58:57.419Z,2.33
